Time;durP1;ratioP1;P1;durP2;ratioP2;P2;SDS_P1;SDS_P2;PMS_P1;PMS_P2;Temp;Humidity;BMP_temperature;BMP_pressure;BME280_temperature;BME280_humidity;BME280_pressure;Samples;Min_cycle;Max_cycle;Signal;HPM_P1;HPM_P2
2023/09/09 00:00:24;;;;;;;;;;;;;;;19.51;68.24;100067.88;3133338;28;19931;-67
2023/09/09 00:01:56;;;;;;;;;;;;;;;19.55;67.92;100077.22;3143838;28;19928;-67
2023/09/09 00:03:26;;;;;;;;;;;;;;;19.58;67.67;100071.72;3145652;28;19935;-66
2023/09/09 00:04:58;;;;;;;;;;;;;;;19.60;67.46;100072.44;3144797;28;19928;-67
2023/09/09 00:06:28;;;;;;;;;;;;;;;19.64;67.33;100076.53;3128797;28;19925;-67
2023/09/09 00:08:00;;;;;;;;;;;;;;;19.68;67.01;100071.88;3140413;28;19924;-66
2023/09/09 00:09:32;;;;;;;;;;;;;;;19.71;66.73;100080.38;3138705;28;20317;-67
2023/09/09 00:11:04;;;;;;;;;;;;;;;19.73;66.51;100075.84;3139206;28;20365;-66
2023/09/09 00:12:34;;;;;;;;;;;;;;;19.74;66.53;100077.50;3139932;28;19960;-66
2023/09/09 00:14:06;;;;;;;;;;;;;;;19.75;66.56;100078.34;3132555;28;19928;-66
2023/09/09 00:15:36;;;;;;;;;;;;;;;19.77;66.32;100077.25;3132942;28;19929;-67
2023/09/09 00:17:08;;;;;;;;;;;;;;;19.78;66.22;100076.28;3136221;28;19939;-66
2023/09/09 00:18:40;;;;;;;;;;;;;;;19.77;66.21;100074.63;3145397;28;19924;-65
2023/09/09 00:20:11;;;;;;;;;;;;;;;19.78;66.09;100071.00;3142116;28;19933;-65
2023/09/09 00:21:42;;;;;;;;;;;;;;;19.80;66.08;100075.34;3133155;28;19929;-65
2023/09/09 00:23:13;;;;;;;;;;;;;;;19.80;65.77;100065.63;3133133;28;19951;-66
2023/09/09 00:24:46;;;;;;;;;;;;;;;19.82;65.86;100062.84;3141767;28;19925;-66
2023/09/09 00:26:17;;;;;;;;;;;;;;;19.85;65.66;100073.19;3144864;28;20394;-66
2023/09/09 00:27:48;;;;;;;;;;;;;;;19.86;65.62;100064.28;3143448;28;20322;-66
2023/09/09 00:29:19;;;;;;;;;;;;;;;19.88;65.59;100065.00;3137177;28;19925;-66
2023/09/09 00:30:50;;;;;;;;;;;;;;;19.90;65.34;100057.78;3140622;28;19940;-66
2023/09/09 00:32:22;;;;;;;;;;;;;;;19.91;65.24;100056.84;3138345;28;19944;-66
2023/09/09 00:33:52;;;;;;;;;;;;;;;19.91;65.43;100057.69;3137179;28;19931;-69
2023/09/09 00:35:24;;;;;;;;;;;;;;;19.90;65.20;100055.97;3128810;28;19925;-66
2023/09/09 00:36:55;;;;;;;;;;;;;;;19.91;65.18;100054.19;3125021;28;19932;-67
2023/09/09 00:38:26;;;;;;;;;;;;;;;19.93;65.15;100062.81;3132784;28;19948;-67
2023/09/09 00:39:58;;;;;;;;;;;;;;;19.95;65.00;100063.53;3132540;28;19925;-67
2023/09/09 00:41:30;;;;;;;;;;;;;;;19.95;65.23;100064.38;3134556;28;19925;-66
2023/09/09 00:43:00;;;;;;;;;;;;;;;19.96;64.91;100068.69;3144492;28;19928;-66
2023/09/09 00:44:32;;;;;;;;;;;;;;;19.97;64.94;100066.91;3133010;28;19931;-65
2023/09/09 00:46:02;;;;;;;;;;;;;;;19.99;64.79;100059.69;3145228;28;20428;-65
2023/09/09 00:47:34;;;;;;;;;;;;;;;20.00;64.82;100067.50;3133308;28;19932;-66
2023/09/09 00:49:05;;;;;;;;;;;;;;;20.00;64.69;100051.66;3132656;28;19936;-66
2023/09/09 00:50:37;;;;;;;;;;;;;;;20.00;64.89;100056.94;3127101;28;19929;-66
2023/09/09 00:52:08;;;;;;;;;;;;;;;20.01;64.73;100057.75;3129860;28;19948;-67
2023/09/09 00:53:40;;;;;;;;;;;;;;;19.98;64.75;100047.44;3141523;28;20034;-66
2023/09/09 00:55:12;;;;;;;;;;;;;;;19.97;64.86;100051.06;3132948;28;20248;-67
2023/09/09 00:56:43;;;;;;;;;;;;;;;19.92;64.86;100053.22;3139382;28;19979;-65
2023/09/09 00:58:14;;;;;;;;;;;;;;;19.87;65.23;100064.16;3126823;28;19925;-67
2023/09/09 00:59:47;;;;;;;;;;;;;;;19.81;65.49;100047.94;3132652;28;19951;-68
2023/09/09 01:01:17;;;;;;;;;;;;;;;19.76;65.39;100058.91;3132950;28;20310;-66
2023/09/09 01:02:49;;;;;;;;;;;;;;;19.72;65.84;100052.16;3132465;28;20026;-66
2023/09/09 01:04:19;;;;;;;;;;;;;;;19.71;65.69;100053.97;3132580;28;20497;-66
2023/09/09 01:05:51;;;;;;;;;;;;;;;19.72;65.69;100044.22;3126534;28;19939;-66
2023/09/09 01:07:23;;;;;;;;;;;;;;;19.75;65.42;100044.81;3132677;28;19979;-66
2023/09/09 01:08:54;;;;;;;;;;;;;;;19.78;65.36;100041.09;3132841;28;19929;-66
2023/09/09 01:10:26;;;;;;;;;;;;;;;19.83;65.38;100043.38;3145398;28;19928;-66
2023/09/09 01:11:59;;;;;;;;;;;;;;;19.86;65.20;100040.50;3132228;28;20484;-67
2023/09/09 01:13:30;;;;;;;;;;;;;;;19.87;65.19;100037.72;3144165;28;19970;-66
2023/09/09 01:15:02;;;;;;;;;;;;;;;19.88;65.03;100038.59;3129506;28;20012;-67
2023/09/09 01:16:34;;;;;;;;;;;;;;;19.90;64.88;100034.81;3132421;28;19941;-67
2023/09/09 01:18:05;;;;;;;;;;;;;;;19.93;64.99;100028.47;3141740;28;19928;-67
2023/09/09 01:19:36;;;;;;;;;;;;;;;19.96;64.90;100030.84;3145212;28;20334;-66
2023/09/09 01:21:08;;;;;;;;;;;;;;;19.97;64.69;100025.47;3132263;28;19948;-66
2023/09/09 01:22:43;;;;;;;;;;;;;;;19.99;64.77;100034.13;3139405;28;20497;-66
2023/09/09 01:24:14;;;;;;;;;;;;;;;20.02;64.68;100021.59;3134272;28;19925;-66
2023/09/09 01:25:46;;;;;;;;;;;;;;;20.03;64.41;100029.41;3138665;28;19938;-66
2023/09/09 01:27:16;;;;;;;;;;;;;;;20.03;64.61;100024.13;3144037;28;19924;-67
2023/09/09 01:28:48;;;;;;;;;;;;;;;20.03;64.52;100031.22;3140173;28;19928;-67
2023/09/09 01:30:20;;;;;;;;;;;;;;;20.04;64.54;100022.31;3132649;28;19932;-67
2023/09/09 01:31:50;;;;;;;;;;;;;;;20.02;64.53;100025.06;3132564;28;19940;-66
2023/09/09 01:33:22;;;;;;;;;;;;;;;19.99;64.72;100026.19;3134219;28;19928;-67
2023/09/09 01:34:52;;;;;;;;;;;;;;;20.01;64.54;100023.41;3136054;28;19925;-66
2023/09/09 01:36:24;;;;;;;;;;;;;;;20.03;64.52;100034.69;3120228;28;19925;-66
2023/09/09 01:37:57;;;;;;;;;;;;;;;20.05;64.31;100029.28;3123688;28;20009;-67
2023/09/09 01:39:28;;;;;;;;;;;;;;;20.08;64.61;100027.22;3132369;28;19925;-67
2023/09/09 01:40:59;;;;;;;;;;;;;;;20.08;64.33;100026.38;3143536;28;19931;-66
2023/09/09 01:42:30;;;;;;;;;;;;;;;20.08;64.54;100021.09;3144951;28;19951;-66
2023/09/09 01:44:01;;;;;;;;;;;;;;;20.08;64.55;100021.94;3144749;28;20329;-66
2023/09/09 01:45:32;;;;;;;;;;;;;;;20.10;64.48;100030.59;3146327;28;19929;-66
2023/09/09 01:47:05;;;;;;;;;;;;;;;20.12;64.38;100020.72;3139317;28;20015;-67
2023/09/09 01:48:35;;;;;;;;;;;;;;;20.14;64.30;100025.88;3134810;28;19932;-67
2023/09/09 01:50:08;;;;;;;;;;;;;;;20.15;64.23;100031.06;3132743;28;19932;-67
2023/09/09 01:51:38;;;;;;;;;;;;;;;20.15;64.36;100028.41;3127691;28;19969;-67
2023/09/09 01:53:11;;;;;;;;;;;;;;;20.15;64.27;100024.94;3139124;28;20350;-67
2023/09/09 01:54:42;;;;;;;;;;;;;;;20.14;64.29;100025.88;3147129;28;19935;-68
2023/09/09 01:56:13;;;;;;;;;;;;;;;20.13;64.36;100027.69;3147224;28;19956;-67
2023/09/09 01:57:44;;;;;;;;;;;;;;;20.10;64.37;100035.88;3134484;28;19932;-66
2023/09/09 01:59:15;;;;;;;;;;;;;;;20.07;64.53;100024.72;3139711;28;20015;-67
2023/09/09 02:00:46;;;;;;;;;;;;;;;20.05;64.54;100032.75;3146539;28;19932;-66
2023/09/09 02:02:17;;;;;;;;;;;;;;;20.03;64.59;100029.41;3134834;28;19924;-66
2023/09/09 02:03:48;;;;;;;;;;;;;;;20.01;64.62;100031.34;3134881;28;19947;-67
2023/09/09 02:05:20;;;;;;;;;;;;;;;20.01;64.49;100028.69;3131211;28;19925;-66
2023/09/09 02:06:50;;;;;;;;;;;;;;;20.03;64.69;100031.22;3131412;28;20390;-66
2023/09/09 02:08:23;;;;;;;;;;;;;;;20.03;64.47;100026.78;3141747;28;19935;-67
2023/09/09 02:09:54;;;;;;;;;;;;;;;20.05;64.54;100027.47;3137870;28;20031;-67
2023/09/09 02:11:25;;;;;;;;;;;;;;;20.07;64.76;100035.28;3134673;28;19929;-67
2023/09/09 02:12:56;;;;;;;;;;;;;;;20.07;64.39;100033.47;3134662;28;20373;-67
2023/09/09 02:14:27;;;;;;;;;;;;;;;20.06;64.33;100036.25;3134372;28;19924;-66
2023/09/09 02:16:04;;;;;;;;;;;;;;;20.04;64.63;100027.59;3139886;28;20317;-66
2023/09/09 02:17:37;;;;;;;;;;;;;;;20.02;64.50;100032.16;3141137;28;19928;-67
2023/09/09 02:19:07;;;;;;;;;;;;;;;20.00;64.51;100034.94;3134575;28;20011;-67
2023/09/09 02:20:39;;;;;;;;;;;;;;;20.02;64.53;100033.00;3132404;28;19925;-66
2023/09/09 02:22:09;;;;;;;;;;;;;;;20.02;64.62;100024.25;3137575;28;20714;-66
2023/09/09 02:23:43;;;;;;;;;;;;;;;20.04;64.47;100022.31;3146907;28;19954;-66
2023/09/09 02:25:13;;;;;;;;;;;;;;;20.03;64.67;100028.56;3142158;28;19925;-66
2023/09/09 02:26:45;;;;;;;;;;;;;;;19.98;64.77;100026.28;3146224;28;20321;-67
2023/09/09 02:28:17;;;;;;;;;;;;;;;19.90;64.97;100031.34;3146719;28;20034;-67
2023/09/09 02:29:49;;;;;;;;;;;;;;;19.85;65.46;100026.44;3134550;28;20047;-67
2023/09/09 02:31:19;;;;;;;;;;;;;;;19.85;65.42;100028.25;3146102;28;19929;-67
2023/09/09 02:32:51;;;;;;;;;;;;;;;19.85;65.21;100030.91;3136075;28;19952;-67
2023/09/09 02:34:21;;;;;;;;;;;;;;;19.87;65.18;100034.25;3134290;28;19978;-67
2023/09/09 02:35:53;;;;;;;;;;;;;;;19.88;65.04;100033.31;3126374;28;20034;-66
2023/09/09 02:37:25;;;;;;;;;;;;;;;19.86;65.33;100033.41;3142196;28;20451;-67
2023/09/09 02:38:58;;;;;;;;;;;;;;;19.81;65.38;100030.28;3139306;28;19928;-67
2023/09/09 02:40:30;;;;;;;;;;;;;;;19.82;65.53;100033.75;3133931;28;20381;-67
2023/09/09 02:42:00;;;;;;;;;;;;;;;19.84;65.12;100031.84;3139891;28;20379;-66
2023/09/09 02:43:32;;;;;;;;;;;;;;;19.85;65.13;100029.09;3146654;28;19928;-65
2023/09/09 02:45:03;;;;;;;;;;;;;;;19.86;65.22;100027.28;3146650;28;19924;-65
2023/09/09 02:46:34;;;;;;;;;;;;;;;19.85;65.16;100033.53;3143401;28;19925;-66
2023/09/09 02:48:06;;;;;;;;;;;;;;;19.84;65.03;100034.50;3133754;28;19929;-66
2023/09/09 02:49:37;;;;;;;;;;;;;;;19.83;65.10;100033.66;3134332;28;19999;-66
2023/09/09 02:51:08;;;;;;;;;;;;;;;19.84;65.01;100029.19;3129720;28;20469;-67
2023/09/09 02:52:39;;;;;;;;;;;;;;;19.82;65.15;100028.47;3146439;28;19924;-67
2023/09/09 02:54:14;;;;;;;;;;;;;;;19.80;65.29;100025.13;3121204;28;20351;-67
2023/09/09 02:55:44;;;;;;;;;;;;;;;19.80;65.18;100025.13;3133434;28;20012;-67
2023/09/09 02:57:16;;;;;;;;;;;;;;;19.76;65.32;100024.56;3134839;28;19940;-67
2023/09/09 02:58:46;;;;;;;;;;;;;;;19.73;65.37;100017.69;3131599;28;20310;-67
2023/09/09 03:00:18;;;;;;;;;;;;;;;19.71;65.48;100019.63;3143322;28;19935;-67
2023/09/09 03:01:49;;;;;;;;;;;;;;;19.70;65.37;100023.22;3137429;28;19936;-67
2023/09/09 03:03:21;;;;;;;;;;;;;;;19.71;65.34;100022.25;3141881;28;19935;-67
2023/09/09 03:04:51;;;;;;;;;;;;;;;19.69;65.43;100018.88;3139297;28;20401;-68
2023/09/09 03:06:23;;;;;;;;;;;;;;;19.68;65.45;100019.88;3132266;28;19924;-67
2023/09/09 03:07:53;;;;;;;;;;;;;;;19.69;65.46;100018.06;3133812;28;19935;-68
2023/09/09 03:09:26;;;;;;;;;;;;;;;19.68;65.63;100011.09;3133712;28;19925;-67
2023/09/09 03:10:57;;;;;;;;;;;;;;;19.67;65.67;100012.03;3133627;28;20011;-67
2023/09/09 03:12:28;;;;;;;;;;;;;;;19.65;65.67;100017.47;3137179;28;20266;-67
2023/09/09 03:13:59;;;;;;;;;;;;;;;19.62;65.65;100014.19;3139151;28;20395;-67
2023/09/09 03:15:31;;;;;;;;;;;;;;;19.54;65.94;100015.63;3133695;28;20022;-68
2023/09/09 03:17:01;;;;;;;;;;;;;;;19.48;66.31;100015.28;3133967;28;20012;-69
2023/09/09 03:18:33;;;;;;;;;;;;;;;19.42;66.78;100023.69;3134147;28;19925;-67
2023/09/09 03:20:05;;;;;;;;;;;;;;;19.38;66.79;100022.25;3124507;28;19947;-67
2023/09/09 03:21:36;;;;;;;;;;;;;;;19.34;66.92;100016.34;3133775;28;20427;-67
2023/09/09 03:23:07;;;;;;;;;;;;;;;19.30;67.01;100009.66;3144688;28;19932;-67
2023/09/09 03:24:40;;;;;;;;;;;;;;;19.23;67.31;100017.22;3135900;28;19925;-67
2023/09/09 03:26:10;;;;;;;;;;;;;;;19.21;67.46;100005.94;3143401;28;19928;-66
2023/09/09 03:27:42;;;;;;;;;;;;;;;19.15;67.72;100005.56;3145338;28;19924;-67
2023/09/09 03:29:13;;;;;;;;;;;;;;;19.09;67.92;100010.34;3138944;28;19929;-67
2023/09/09 03:30:55;;;;;;;;;;;;;;;19.04;68.25;100007.22;3140337;28;19924;-67
2023/09/09 03:32:25;;;;;;;;;;;;;;;18.96;68.58;100006.13;3145602;28;20425;-67
2023/09/09 03:33:57;;;;;;;;;;;;;;;18.89;68.76;100000.50;3145076;28;19929;-67
2023/09/09 03:35:28;;;;;;;;;;;;;;;18.93;68.58;100011.66;3125590;28;19932;-67
2023/09/09 03:36:59;;;;;;;;;;;;;;;18.93;68.92;100014.28;3126167;28;19981;-68
2023/09/09 03:38:30;;;;;;;;;;;;;;;18.88;68.96;100009.38;3137601;28;19924;-67
2023/09/09 03:40:03;;;;;;;;;;;;;;;18.86;69.08;100006.00;3146334;28;19928;-67
2023/09/09 03:41:34;;;;;;;;;;;;;;;18.82;69.05;100010.69;3143329;28;20015;-67
2023/09/09 03:43:05;;;;;;;;;;;;;;;18.81;69.03;100009.00;3135375;28;19932;-67
2023/09/09 03:44:37;;;;;;;;;;;;;;;18.81;68.93;100016.94;3144522;28;19928;-67
2023/09/09 03:46:08;;;;;;;;;;;;;;;18.81;69.11;100018.69;3133332;28;19931;-67
2023/09/09 03:47:39;;;;;;;;;;;;;;;18.74;69.37;100018.31;3146063;28;19924;-67
2023/09/09 03:49:10;;;;;;;;;;;;;;;18.70;69.34;100019.50;3133999;28;19929;-67
2023/09/09 03:50:41;;;;;;;;;;;;;;;18.67;69.44;100017.09;3126925;28;20013;-67
2023/09/09 03:52:13;;;;;;;;;;;;;;;18.66;69.43;100023.31;3131265;28;19929;-67
2023/09/09 03:53:43;;;;;;;;;;;;;;;18.69;69.40;100011.69;3134015;28;19929;-67
2023/09/09 03:55:17;;;;;;;;;;;;;;;18.72;68.94;100022.00;3142715;28;20402;-66
2023/09/09 03:56:49;;;;;;;;;;;;;;;18.74;68.75;100017.50;3135281;28;19929;-70
2023/09/09 03:58:21;;;;;;;;;;;;;;;18.78;68.67;100021.56;3129281;28;19964;-72
2023/09/09 03:59:53;;;;;;;;;;;;;;;18.76;68.66;100024.34;3140428;28;20349;-73
2023/09/09 04:01:24;;;;;;;;;;;;;;;18.75;68.60;100016.53;3145715;28;19985;-73
2023/09/09 04:02:55;;;;;;;;;;;;;;;18.77;68.51;100018.09;3139487;28;19936;-73
2023/09/09 04:04:26;;;;;;;;;;;;;;;18.78;68.61;100019.78;3138565;28;19924;-74
2023/09/09 04:05:57;;;;;;;;;;;;;;;18.77;68.61;100023.38;3132304;28;19948;-75
2023/09/09 04:07:33;;;;;;;;;;;;;;;18.77;68.37;100020.72;3132742;28;19924;-73
2023/09/09 04:09:03;;;;;;;;;;;;;;;18.78;68.43;100026.84;3133208;28;19956;-73
2023/09/09 04:10:36;;;;;;;;;;;;;;;18.79;68.34;100024.09;3133201;28;20035;-73
2023/09/09 04:12:08;;;;;;;;;;;;;;;18.80;68.35;100031.06;3134982;28;19932;-71
2023/09/09 04:13:40;;;;;;;;;;;;;;;18.83;68.37;100022.06;3143681;28;19943;-72
2023/09/09 04:15:10;;;;;;;;;;;;;;;18.84;68.26;100027.25;3143212;28;19951;-72
2023/09/09 04:16:43;;;;;;;;;;;;;;;18.84;68.19;100029.88;3145424;28;19929;-72
2023/09/09 04:18:13;;;;;;;;;;;;;;;18.86;68.19;100027.13;3140162;28;20310;-72
2023/09/09 04:19:45;;;;;;;;;;;;;;;18.87;68.13;100028.78;3140819;28;20014;-72
2023/09/09 04:21:15;;;;;;;;;;;;;;;18.89;68.04;100032.16;3136465;28;19928;-72
2023/09/09 04:22:47;;;;;;;;;;;;;;;18.88;67.95;100024.38;3140734;28;19998;-69
2023/09/09 04:24:19;;;;;;;;;;;;;;;18.89;68.03;100026.88;3139760;28;19932;-69
2023/09/09 04:25:51;;;;;;;;;;;;;;;18.90;68.10;100028.56;3138598;28;19925;-68
2023/09/09 04:27:23;;;;;;;;;;;;;;;18.91;67.99;100032.06;3142563;28;19932;-68
2023/09/09 04:28:55;;;;;;;;;;;;;;;18.92;68.12;100028.44;3145948;28;19959;-68
2023/09/09 04:30:25;;;;;;;;;;;;;;;18.93;68.10;100023.06;3141275;28;19987;-67
2023/09/09 04:31:57;;;;;;;;;;;;;;;18.96;68.12;100025.47;3133092;28;20022;-68
2023/09/09 04:33:27;;;;;;;;;;;;;;;18.99;68.10;100027.00;3130445;28;20014;-73
2023/09/09 04:34:59;;;;;;;;;;;;;;;19.01;68.16;100030.38;3131122;28;19950;-70
2023/09/09 04:36:31;;;;;;;;;;;;;;;19.02;68.08;100037.34;3122877;28;19925;-71
2023/09/09 04:38:01;;;;;;;;;;;;;;;19.00;68.11;100028.72;3145288;28;19924;-70
2023/09/09 04:39:33;;;;;;;;;;;;;;;19.00;68.11;100026.06;3145475;28;19929;-74
2023/09/09 04:41:05;;;;;;;;;;;;;;;18.99;68.04;100027.88;3145653;28;19929;-79
2023/09/09 04:42:36;;;;;;;;;;;;;;;19.03;68.17;100025.84;3145888;28;19935;-83
2023/09/09 04:44:07;;;;;;;;;;;;;;;19.07;68.02;100022.81;3147127;28;19981;-74
2023/09/09 04:45:38;;;;;;;;;;;;;;;19.12;67.95;100021.66;3126940;28;20037;-75
2023/09/09 04:47:09;;;;;;;;;;;;;;;19.17;67.86;100024.78;3130693;28;19931;-78
2023/09/09 04:48:41;;;;;;;;;;;;;;;19.21;67.66;100029.69;3135138;28;19928;-70
2023/09/09 04:50:13;;;;;;;;;;;;;;;19.23;67.53;100024.31;3130181;28;20380;-70
2023/09/09 04:51:44;;;;;;;;;;;;;;;19.24;67.77;100021.53;3126831;28;20322;-67
2023/09/09 04:53:15;;;;;;;;;;;;;;;19.25;67.66;100020.56;3126137;28;19948;-71
2023/09/09 04:54:46;;;;;;;;;;;;;;;19.26;67.52;100018.78;3136116;28;20336;-70
2023/09/09 04:56:18;;;;;;;;;;;;;;;19.26;67.57;100022.25;3137943;28;19947;-78
2023/09/09 04:57:50;;;;;;;;;;;;;;;19.26;67.36;100016.97;3129388;28;19931;-71
2023/09/09 04:59:20;;;;;;;;;;;;;;;19.24;67.64;100021.53;3132440;28;19931;-78
2023/09/09 05:00:52;;;;;;;;;;;;;;;19.19;67.77;100017.56;3132627;28;19935;-72
2023/09/09 05:02:22;;;;;;;;;;;;;;;19.16;67.97;100016.00;3132298;28;19979;-72
2023/09/09 05:03:54;;;;;;;;;;;;;;;19.16;67.96;100021.28;3135407;28;19932;-73
2023/09/09 05:05:24;;;;;;;;;;;;;;;19.12;68.32;100022.47;3140543;28;20071;-69
2023/09/09 05:06:56;;;;;;;;;;;;;;;19.07;68.45;100025.47;3134205;28;19929;-66
2023/09/09 05:08:26;;;;;;;;;;;;;;;19.05;68.76;100016.00;3132492;28;19929;-70
2023/09/09 05:09:58;;;;;;;;;;;;;;;19.04;68.72;100020.41;3132452;28;19925;-69
2023/09/09 05:11:30;;;;;;;;;;;;;;;19.02;68.80;100016.25;3144860;28;19932;-72
2023/09/09 05:13:03;;;;;;;;;;;;;;;19.03;68.80;100018.75;3133569;28;19929;-71
2023/09/09 05:14:34;;;;;;;;;;;;;;;19.07;68.71;100016.72;3143090;28;20023;-70
2023/09/09 05:16:05;;;;;;;;;;;;;;;19.10;68.72;100017.31;3144707;28;19936;-73
2023/09/09 05:17:36;;;;;;;;;;;;;;;19.15;68.35;100016.97;3132644;28;20330;-71
2023/09/09 05:19:07;;;;;;;;;;;;;;;19.20;68.24;100020.09;3140370;28;19931;-79
2023/09/09 05:20:38;;;;;;;;;;;;;;;19.25;68.24;100011.81;3131326;28;19983;-71
2023/09/09 05:22:09;;;;;;;;;;;;;;;19.31;68.01;100016.59;3125639;28;19928;-77
2023/09/09 05:23:40;;;;;;;;;;;;;;;19.32;68.06;100016.50;3131271;28;20401;-74
2023/09/09 05:25:12;;;;;;;;;;;;;;;19.38;67.69;100023.09;3136387;28;20022;-72
2023/09/09 05:26:45;;;;;;;;;;;;;;;19.44;67.64;100019.13;3141463;28;19933;-75
2023/09/09 05:28:15;;;;;;;;;;;;;;;19.47;67.66;100022.38;3132559;28;19929;-75
2023/09/09 05:29:47;;;;;;;;;;;;;;;19.49;67.59;100015.19;3144771;28;19973;-76
2023/09/09 05:31:18;;;;;;;;;;;;;;;19.52;67.53;100019.34;3133044;28;19935;-74
2023/09/09 05:32:49;;;;;;;;;;;;;;;19.58;67.62;100012.75;3131927;28;20317;-79
2023/09/09 05:34:20;;;;;;;;;;;;;;;19.69;67.28;100007.50;3129456;28;19935;-70
2023/09/09 05:35:51;;;;;;;;;;;;;;;19.80;67.27;100018.03;3125059;28;19925;-73
2023/09/09 05:37:22;;;;;;;;;;;;;;;19.91;67.09;100015.38;3135311;28;20330;-81
2023/09/09 05:38:59;;;;;;;;;;;;;;;20.02;66.99;100016.31;3145264;28;19957;-76
2023/09/09 05:40:30;;;;;;;;;;;;;;;20.20;66.94;100026.25;3133168;28;19929;-80
2023/09/09 05:42:05;;;;;;;;;;;;;;;20.35;66.58;100024.16;3138705;28;19997;-79
2023/09/09 05:43:37;;;;;;;;;;;;;;;20.48;66.67;100023.13;3139168;28;19937;-80
2023/09/09 05:45:08;;;;;;;;;;;;;;;20.61;66.42;100019.34;3137003;28;20397;-82
2023/09/09 05:46:40;;;;;;;;;;;;;;;20.74;66.09;100019.16;3145799;28;20421;-80
2023/09/09 05:48:10;;;;;;;;;;;;;;;20.89;66.14;100017.03;3141353;28;19951;-71
2023/09/09 05:49:42;;;;;;;;;;;;;;;21.08;65.92;100017.13;3134571;28;19924;-77
2023/09/09 05:51:13;;;;;;;;;;;;;;;21.25;65.55;100012.22;3123868;28;19936;-71
2023/09/09 05:52:44;;;;;;;;;;;;;;;21.39;65.24;100005.75;3132812;28;19925;-72
2023/09/09 05:54:15;;;;;;;;;;;;;;;21.58;64.76;100013.75;3140932;28;19931;-73
2023/09/09 05:55:46;;;;;;;;;;;;;;;21.72;64.49;100012.53;3144695;28;19924;-74
2023/09/09 05:57:18;;;;;;;;;;;;;;;21.85;64.37;100014.94;3132503;28;19925;-75
2023/09/09 05:58:50;;;;;;;;;;;;;;;21.94;64.06;100009.66;3142030;28;19924;-76
2023/09/09 06:00:20;;;;;;;;;;;;;;;22.01;64.08;100012.59;3139776;28;19951;-77
2023/09/09 06:02:20;;;;;;;;;;;;;;;22.07;63.80;100024.47;3140355;28;19928;-73
2023/09/09 06:03:56;;;;;;;;;;;;;;;22.06;63.92;100015.66;3116936;28;20441;-75
2023/09/09 06:05:28;;;;;;;;;;;;;;;22.07;63.75;100017.34;3119106;28;19933;-76
2023/09/09 06:06:58;;;;;;;;;;;;;;;22.11;63.96;100017.91;3125181;28;19936;-77
2023/09/09 06:08:30;;;;;;;;;;;;;;;22.18;63.40;100014.63;3135094;28;20146;-79
2023/09/09 06:10:01;;;;;;;;;;;;;;;22.21;63.40;100022.28;3132044;28;19928;-71
2023/09/09 06:11:32;;;;;;;;;;;;;;;22.25;63.09;100012.25;3131744;28;19925;-73
2023/09/09 06:13:04;;;;;;;;;;;;;;;22.27;63.31;100018.22;3137387;28;19928;-74
2023/09/09 06:14:36;;;;;;;;;;;;;;;22.32;62.69;100013.34;3143263;28;20405;-75
2023/09/09 06:16:07;;;;;;;;;;;;;;;22.33;62.62;100019.47;3143942;28;20342;-76
2023/09/09 06:17:39;;;;;;;;;;;;;;;22.34;62.51;100016.72;3143475;28;19929;-75
2023/09/09 06:19:10;;;;;;;;;;;;;;;22.39;62.59;100018.91;3143608;28;19990;-73
2023/09/09 06:20:46;;;;;;;;;;;;;;;22.37;62.13;100011.13;3132097;28;19925;-74
2023/09/09 06:22:17;;;;;;;;;;;;;;;22.43;62.14;100017.69;3130122;28;19929;-75
2023/09/09 06:23:48;;;;;;;;;;;;;;;22.51;62.22;100015.19;3129490;28;20354;-75
2023/09/09 06:25:19;;;;;;;;;;;;;;;22.63;61.98;100016.69;3132473;28;20417;-78
2023/09/09 06:26:51;;;;;;;;;;;;;;;22.73;61.48;100021.16;3135752;28;20110;-76
2023/09/09 06:28:23;;;;;;;;;;;;;;;22.79;61.21;100024.06;3144311;28;19947;-72
2023/09/09 06:29:54;;;;;;;;;;;;;;;22.88;61.27;100025.88;3132578;28;19987;-77
2023/09/09 06:31:26;;;;;;;;;;;;;;;22.99;60.89;100024.91;3127473;28;19925;-76
2023/09/09 06:32:56;;;;;;;;;;;;;;;23.08;60.88;100020.56;3124550;28;19925;-74
2023/09/09 06:34:28;;;;;;;;;;;;;;;23.19;60.45;100022.16;3133009;28;19925;-74
2023/09/09 06:35:58;;;;;;;;;;;;;;;23.31;60.47;100016.56;3124379;28;19987;-77
2023/09/09 06:37:30;;;;;;;;;;;;;;;23.43;59.71;100019.03;3132492;28;20390;-78
2023/09/09 06:39:00;;;;;;;;;;;;;;;23.52;59.70;100023.47;3134635;28;19991;-79
2023/09/09 06:41:02;;;;;;;;;;;;;;;23.60;59.62;100028.84;3134867;28;19929;-79
2023/09/09 06:42:32;;;;;;;;;;;;;;;23.60;59.15;100027.06;3127149;28;19925;-78
2023/09/09 06:44:06;;;;;;;;;;;;;;;23.63;59.38;100025.91;3135582;28;20096;-78
2023/09/09 06:45:36;;;;;;;;;;;;;;;23.70;59.13;100032.34;3127288;28;19956;-78
2023/09/09 06:47:10;;;;;;;;;;;;;;;23.81;58.65;100029.50;3131612;28;19925;-79
2023/09/09 06:48:40;;;;;;;;;;;;;;;23.87;58.77;100024.53;3141948;28;19928;-78
2023/09/09 06:50:12;;;;;;;;;;;;;;;23.82;58.17;100019.69;3135008;28;20114;-78
2023/09/09 06:51:42;;;;;;;;;;;;;;;23.74;58.18;100031.06;3129395;28;20020;-78
2023/09/09 06:53:14;;;;;;;;;;;;;;;23.74;58.66;100028.41;3141265;28;20019;-78
2023/09/09 06:54:45;;;;;;;;;;;;;;;23.85;58.57;100024.72;3137079;28;19943;-78
2023/09/09 06:56:17;;;;;;;;;;;;;;;24.01;58.64;100024.03;3134491;28;19924;-79
2023/09/09 06:57:47;;;;;;;;;;;;;;;24.21;58.83;100022.91;3134516;28;20340;-78
2023/09/09 06:59:20;;;;;;;;;;;;;;;24.44;58.46;100028.66;3136932;28;19928;-78
2023/09/09 07:00:51;;;;;;;;;;;;;;;24.71;58.57;100030.38;3146570;28;19924;-78
2023/09/09 07:02:23;;;;;;;;;;;;;;;25.10;58.02;100026.47;3144688;28;19925;-78
2023/09/09 07:03:53;;;;;;;;;;;;;;;25.50;57.31;100025.88;3134982;28;19928;-79
2023/09/09 07:05:25;;;;;;;;;;;;;;;25.86;56.43;100033.72;3138764;28;20413;-78
2023/09/09 07:06:57;;;;;;;;;;;;;;;26.14;55.94;100022.75;3133850;28;19929;-77
2023/09/09 07:08:28;;;;;;;;;;;;;;;26.47;55.47;100029.81;3133913;28;19925;-78
2023/09/09 07:09:59;;;;;;;;;;;;;;;26.72;54.67;100029.81;3134146;28;20390;-78
2023/09/09 07:11:30;;;;;;;;;;;;;;;26.97;53.99;100034.13;3143686;28;19940;-78
2023/09/09 07:13:03;;;;;;;;;;;;;;;27.07;52.97;100031.28;3146723;28;19924;-79
2023/09/09 07:14:35;;;;;;;;;;;;;;;27.16;52.43;100032.97;3146688;28;19940;-79
2023/09/09 07:16:06;;;;;;;;;;;;;;;27.38;52.12;100035.88;3146252;28;20019;-78
2023/09/09 07:17:37;;;;;;;;;;;;;;;27.64;52.18;100025.75;3139957;28;19928;-79
2023/09/09 07:19:08;;;;;;;;;;;;;;;27.96;51.45;100026.63;3133944;28;19925;-78
2023/09/09 07:20:39;;;;;;;;;;;;;;;28.32;50.97;100024.19;3132665;28;19925;-78
2023/09/09 07:22:10;;;;;;;;;;;;;;;28.70;50.08;100024.25;3133798;28;19933;-78
2023/09/09 07:23:41;;;;;;;;;;;;;;;29.00;49.25;100024.31;3131228;28;19925;-76
2023/09/09 07:25:12;;;;;;;;;;;;;;;29.31;48.79;100028.69;3133951;28;19925;-78
2023/09/09 07:26:43;;;;;;;;;;;;;;;29.65;48.14;100025.47;3134592;28;20318;-77
2023/09/09 07:28:15;;;;;;;;;;;;;;;29.95;47.35;100023.53;3146993;28;19928;-78
2023/09/09 07:29:48;;;;;;;;;;;;;;;30.19;46.55;100027.72;3134926;28;19929;-77
2023/09/09 07:31:18;;;;;;;;;;;;;;;30.22;45.96;100026.53;3136893;28;20083;-78
2023/09/09 07:32:50;;;;;;;;;;;;;;;30.22;45.55;100021.16;3144051;28;19929;-76
2023/09/09 07:34:20;;;;;;;;;;;;;;;30.46;45.23;100031.50;3141992;28;19928;-77
2023/09/09 07:35:52;;;;;;;;;;;;;;;30.66;43.92;100034.38;3127061;28;19955;-75
2023/09/09 07:37:23;;;;;;;;;;;;;;;30.72;43.06;100027.38;3129241;28;19947;-75
2023/09/09 07:38:57;;;;;;;;;;;;;;;30.71;42.76;100026.56;3133432;28;19932;-74
2023/09/09 07:40:27;;;;;;;;;;;;;;;30.80;42.59;100020.03;3140159;28;20459;-77
2023/09/09 07:41:59;;;;;;;;;;;;;;;30.65;41.92;100023.81;3146384;28;19990;-78
2023/09/09 07:43:29;;;;;;;;;;;;;;;30.72;42.39;100012.09;3145662;28;19951;-75
2023/09/09 07:45:02;;;;;;;;;;;;;;;30.92;41.89;100017.63;3145657;28;20034;-76
2023/09/09 07:46:33;;;;;;;;;;;;;;;31.11;41.96;100023.34;3146138;28;20038;-76
2023/09/09 07:48:05;;;;;;;;;;;;;;;31.38;41.36;100022.47;3146075;28;19924;-76
2023/09/09 07:49:36;;;;;;;;;;;;;;;31.55;40.57;100027.53;3143569;28;20088;-76